createdAt,value
2023-01-17T00:02:19.432Z,5.22
2023-01-17T00:05:04.339Z,4.10
2023-01-17T00:07:48.756Z,4.25
2023-01-17T00:10:20.317Z,4.55
2023-01-17T00:12:48.323Z,4.63
2023-01-17T00:15:15.912Z,4.78
2023-01-17T00:17:41.752Z,4.30
2023-01-17T00:20:30.628Z,3.30
2023-01-17T00:23:15.143Z,3.60
2023-01-17T00:25:59.635Z,3.60
2023-01-17T00:28:26.503Z,3.35
2023-01-17T00:30:52.793Z,3.50
2023-01-17T00:33:20.092Z,3.63
2023-01-17T00:35:46.093Z,4.07
2023-01-17T00:38:15.253Z,3.47
2023-01-17T00:40:42.888Z,3.58
2023-01-17T00:43:28.510Z,3.15
2023-01-17T00:46:13.412Z,3.70
2023-01-17T00:48:58.644Z,3.33
2023-01-17T00:51:44.137Z,3.45
2023-01-17T00:54:29.245Z,3.47
2023-01-17T00:57:14.126Z,4.10
2023-01-17T00:59:58.646Z,3.35
2023-01-17T01:02:43.817Z,2.83
2023-01-17T01:05:30.171Z,2.85
2023-01-17T01:08:15.048Z,2.75
2023-01-17T01:11:00.962Z,2.83
2023-01-17T01:13:47.131Z,5.05
2023-01-17T01:16:31.940Z,30.20
2023-01-17T01:19:17.186Z,62.65
2023-01-17T01:22:01.641Z,96.03
2023-01-17T01:24:46.627Z,5.53
2023-01-17T01:27:31.038Z,4.78
2023-01-17T01:30:15.861Z,5.07
2023-01-17T01:33:00.472Z,3.08
2023-01-17T01:35:26.798Z,3.30
2023-01-17T01:37:52.662Z,2.60
2023-01-17T01:40:18.980Z,2.95
2023-01-17T01:42:53.207Z,3.45
2023-01-17T01:45:30.701Z,2.10
2023-01-17T01:48:04.179Z,2.22
2023-01-17T01:50:35.492Z,1.80
2023-01-17T01:53:03.911Z,2.25
2023-01-17T01:55:37.244Z,2.15
2023-01-17T01:58:24.597Z,1.70
2023-01-17T02:00:50.836Z,2.20
2023-01-17T02:03:29.832Z,2.40
2023-01-17T02:06:01.697Z,2.03
2023-01-17T02:08:27.740Z,2.22
2023-01-17T02:10:55.301Z,2.25
2023-01-17T02:13:21.315Z,2.40
2023-01-17T02:16:25.054Z,2.00
2023-01-17T02:19:22.152Z,2.47
2023-01-17T02:22:02.344Z,2.38
2023-01-17T02:25:10.477Z,2.47
2023-01-17T02:28:13.568Z,1.60
2023-01-17T02:30:45.372Z,2.15
2023-01-17T02:34:02.208Z,3.00
2023-01-17T02:36:55.541Z,5.53
2023-01-17T02:39:28.153Z,4.53
2023-01-17T02:42:01.164Z,4.60
2023-01-17T02:44:26.957Z,6.07
2023-01-17T02:46:56.266Z,6.57
2023-01-17T02:49:27.806Z,6.07
2023-01-17T02:52:47.862Z,7.88
2023-01-17T02:55:41.621Z,7.43
2023-01-17T02:58:40.245Z,5.95
2023-01-17T03:01:29.498Z,6.43
2023-01-17T03:04:32.474Z,5.90
2023-01-17T03:07:03.025Z,5.55
2023-01-17T03:09:31.092Z,3.70
2023-01-17T03:11:58.686Z,4.13
2023-01-17T03:14:25.411Z,3.22
2023-01-17T03:16:52.281Z,4.93
2023-01-17T03:19:18.146Z,3.58
2023-01-17T03:21:44.035Z,4.28
2023-01-17T03:24:09.801Z,4.85
2023-01-17T03:26:35.661Z,4.10
2023-01-17T03:29:01.599Z,5.93
2023-01-17T03:31:27.403Z,3.55
2023-01-17T03:33:53.250Z,5.03
2023-01-17T03:36:19.597Z,4.22
2023-01-17T03:38:45.621Z,7.35
2023-01-17T03:41:11.607Z,4.38
2023-01-17T03:43:38.008Z,3.35
2023-01-17T03:46:06.020Z,4.25
2023-01-17T03:48:32.422Z,5.28
2023-01-17T03:50:58.624Z,6.88
2023-01-17T03:53:24.796Z,3.95
2023-01-17T03:55:50.786Z,7.82
2023-01-17T03:58:16.638Z,4.45
2023-01-17T04:00:42.540Z,7.88
2023-01-17T04:03:08.623Z,6.03
2023-01-17T04:05:34.617Z,5.50
2023-01-17T04:08:00.413Z,5.28
2023-01-17T04:10:26.335Z,6.57
2023-01-17T04:12:52.278Z,5.93
2023-01-17T04:15:18.152Z,7.55
2023-01-17T04:17:43.943Z,6.68
2023-01-17T04:20:32.280Z,4.75
2023-01-17T04:22:58.512Z,4.88
2023-01-17T04:25:25.109Z,7.05
2023-01-17T04:27:51.980Z,4.22
2023-01-17T04:30:17.861Z,6.32
2023-01-17T04:32:43.656Z,6.88
2023-01-17T04:35:09.546Z,3.60
2023-01-17T04:37:35.735Z,4.05
2023-01-17T04:40:02.706Z,4.97
2023-01-17T04:42:28.602Z,3.97
2023-01-17T04:44:54.412Z,4.40
2023-01-17T04:47:20.275Z,4.43
2023-01-17T04:49:49.263Z,5.53
2023-01-17T04:52:17.937Z,4.38
2023-01-17T04:54:44.128Z,4.70
2023-01-17T04:57:10.123Z,4.95
2023-01-17T04:59:35.929Z,8.75
2023-01-17T05:02:01.947Z,4.53
2023-01-17T05:04:27.741Z,5.18
2023-01-17T05:06:54.296Z,5.55
2023-01-17T05:09:20.128Z,9.02
2023-01-17T05:11:46.018Z,7.10
2023-01-17T05:14:11.812Z,6.00
2023-01-17T05:16:37.665Z,7.85
2023-01-17T05:19:03.483Z,5.40
2023-01-17T05:21:30.749Z,7.53
2023-01-17T05:23:56.656Z,7.78
2023-01-17T05:26:22.681Z,4.15
2023-01-17T05:28:49.282Z,4.63
2023-01-17T05:31:15.125Z,6.88
2023-01-17T05:33:41.054Z,7.85
2023-01-17T05:36:07.709Z,4.95
2023-01-17T05:38:33.567Z,6.63
2023-01-17T05:41:00.581Z,6.43
2023-01-17T05:43:27.714Z,4.90
2023-01-17T05:45:54.081Z,3.92
2023-01-17T05:48:20.477Z,4.85
2023-01-17T05:50:46.672Z,6.60
2023-01-17T05:53:15.188Z,4.70
2023-01-17T05:55:42.254Z,3.17
2023-01-17T05:58:13.910Z,4.70
2023-01-17T06:00:39.820Z,4.72
2023-01-17T06:03:05.928Z,6.20
2023-01-17T06:05:31.810Z,7.43
2023-01-17T06:07:57.786Z,8.88
2023-01-17T06:10:24.837Z,5.72
2023-01-17T06:13:00.859Z,6.25
2023-01-17T06:15:26.919Z,6.03
2023-01-17T06:17:52.813Z,7.80
2023-01-17T06:20:18.792Z,6.50
2023-01-17T06:22:44.622Z,6.20
2023-01-17T06:25:10.501Z,6.82
2023-01-17T06:27:36.282Z,5.80
2023-01-17T06:30:02.227Z,10.38
2023-01-17T06:32:28.102Z,6.68
2023-01-17T06:34:56.768Z,7.88
2023-01-17T06:37:22.707Z,7.30
2023-01-17T06:39:48.512Z,8.88
2023-01-17T06:42:14.513Z,7.30
2023-01-17T06:44:40.349Z,8.32
2023-01-17T06:47:06.708Z,12.23
2023-01-17T06:49:32.524Z,11.82
2023-01-17T06:51:58.338Z,8.40
2023-01-17T06:54:24.292Z,8.55
2023-01-17T06:56:50.191Z,9.60
2023-01-17T06:59:16.011Z,12.15
2023-01-17T07:01:41.932Z,11.75
2023-01-17T07:04:07.926Z,8.95
2023-01-17T07:06:35.711Z,11.85
2023-01-17T07:09:03.365Z,11.57
2023-01-17T07:11:30.102Z,11.43
2023-01-17T07:13:55.955Z,12.63
2023-01-17T07:16:21.839Z,13.07
2023-01-17T07:18:47.881Z,13.43
2023-01-17T07:21:14.751Z,11.88
2023-01-17T07:23:41.210Z,11.70
2023-01-17T07:26:07.313Z,15.85
2023-01-17T07:28:33.389Z,12.02
2023-01-17T07:31:09.917Z,18.00
2023-01-17T07:33:35.815Z,9.13
2023-01-17T07:36:06.669Z,14.75
2023-01-17T07:38:32.620Z,16.63
2023-01-17T07:40:59.580Z,13.20
2023-01-17T07:43:25.558Z,13.80
2023-01-17T07:45:51.543Z,14.00
2023-01-17T07:48:19.545Z,15.05
2023-01-17T07:50:54.596Z,9.52
2023-01-17T07:53:24.987Z,11.13
2023-01-17T07:55:51.190Z,9.27
2023-01-17T07:58:17.154Z,12.85
2023-01-17T08:00:44.127Z,18.65
2023-01-17T08:03:15.208Z,15.90
2023-01-17T08:05:42.749Z,17.45
2023-01-17T08:08:08.948Z,20.50
2023-01-17T08:10:35.234Z,16.92
2023-01-17T08:13:01.059Z,15.02
2023-01-17T08:15:27.055Z,12.40
2023-01-17T08:17:52.871Z,14.52
2023-01-17T08:20:20.193Z,17.08
2023-01-17T08:22:46.214Z,14.20
2023-01-17T08:25:12.431Z,17.27
2023-01-17T08:27:38.354Z,18.58
2023-01-17T08:30:05.939Z,15.43
2023-01-17T08:32:32.678Z,21.92
2023-01-17T08:34:58.481Z,20.23
2023-01-17T08:37:24.345Z,25.13
2023-01-17T08:39:50.275Z,23.10
2023-01-17T08:42:17.003Z,22.63
2023-01-17T08:44:43.423Z,22.33
2023-01-17T08:47:09.689Z,22.08
2023-01-17T08:49:35.478Z,16.98
2023-01-17T08:52:01.404Z,22.05
2023-01-17T08:54:28.114Z,14.05
2023-01-17T08:56:54.907Z,23.73
2023-01-17T08:59:21.211Z,18.88
2023-01-17T09:01:47.287Z,13.95
2023-01-17T09:04:13.952Z,13.57
2023-01-17T09:06:42.379Z,17.15
2023-01-17T09:09:10.587Z,12.68
2023-01-17T09:11:36.935Z,11.88
2023-01-17T09:14:03.013Z,11.18
2023-01-17T09:16:29.304Z,14.23
2023-01-17T09:18:56.499Z,11.18
2023-01-17T09:21:23.380Z,15.82
2023-01-17T09:23:49.337Z,10.60
2023-01-17T09:26:24.269Z,17.92
2023-01-17T09:28:51.092Z,14.20
2023-01-17T09:31:20.019Z,17.58
2023-01-17T09:33:47.732Z,16.17
2023-01-17T09:36:13.682Z,13.77
2023-01-17T09:38:39.588Z,12.60
2023-01-17T09:41:23.432Z,15.32
2023-01-17T09:44:04.353Z,16.20
2023-01-17T09:46:33.303Z,11.93
2023-01-17T09:49:23.226Z,12.25
2023-01-17T09:51:49.123Z,19.40
2023-01-17T09:54:22.431Z,14.27
2023-01-17T09:57:00.005Z,16.25
2023-01-17T10:00:02.582Z,15.02
2023-01-17T10:02:59.605Z,9.60
2023-01-17T10:05:55.800Z,13.55
2023-01-17T10:08:50.441Z,8.48
2023-01-17T10:11:35.256Z,7.55
2023-01-17T10:14:38.840Z,7.95
2023-01-17T10:17:26.656Z,6.15
2023-01-17T10:20:15.172Z,6.07
2023-01-17T10:22:57.589Z,8.50
2023-01-17T10:25:48.404Z,8.75
2023-01-17T10:28:17.902Z,9.20
2023-01-17T10:30:48.568Z,8.13
2023-01-17T10:33:19.196Z,13.43
2023-01-17T10:35:54.090Z,9.50
2023-01-17T10:38:24.776Z,9.50
2023-01-17T10:40:56.623Z,10.90
2023-01-17T10:43:32.976Z,12.07
2023-01-17T10:45:58.905Z,11.05
2023-01-17T10:48:28.704Z,8.35
2023-01-17T10:51:23.941Z,8.68
2023-01-17T10:54:22.133Z,12.75
2023-01-17T10:56:48.065Z,6.75
2023-01-17T10:59:22.398Z,7.68
2023-01-17T11:01:50.371Z,8.02
2023-01-17T11:04:26.333Z,8.98
2023-01-17T11:07:15.672Z,8.52
2023-01-17T11:09:50.628Z,7.25
2023-01-17T11:12:39.384Z,11.68
2023-01-17T11:15:08.154Z,10.25
2023-01-17T11:17:48.094Z,6.63
2023-01-17T11:20:16.415Z,12.30
2023-01-17T11:23:08.103Z,11.75
2023-01-17T11:25:34.634Z,9.13
2023-01-17T11:28:17.336Z,10.32
2023-01-17T11:30:54.880Z,8.93
2023-01-17T11:33:44.966Z,11.50
2023-01-17T11:36:20.823Z,12.05
2023-01-17T11:38:56.644Z,10.07
2023-01-17T11:41:24.534Z,5.65
2023-01-17T11:43:53.398Z,14.52
2023-01-17T11:46:23.193Z,10.40
2023-01-17T11:48:56.308Z,5.95
2023-01-17T11:51:22.425Z,7.35
2023-01-17T11:53:48.783Z,7.47
2023-01-17T11:56:32.591Z,6.32
2023-01-17T11:59:23.112Z,8.70
2023-01-17T12:02:10.248Z,7.07
2023-01-17T12:04:47.116Z,7.50
2023-01-17T12:07:22.053Z,7.80
2023-01-17T12:10:03.370Z,9.27
2023-01-17T12:12:51.119Z,5.45
2023-01-17T12:15:19.628Z,6.95
2023-01-17T12:18:08.360Z,6.15
2023-01-17T12:20:53.725Z,5.75
2023-01-17T12:23:45.370Z,7.90
2023-01-17T12:26:23.160Z,6.97
2023-01-17T12:29:13.837Z,10.18
2023-01-17T12:31:59.881Z,9.20
2023-01-17T12:34:32.628Z,6.45
2023-01-17T12:37:21.308Z,5.03
2023-01-17T12:40:25.503Z,7.57
2023-01-17T12:43:02.429Z,13.95
2023-01-17T12:45:37.665Z,5.75
2023-01-17T12:48:09.403Z,5.78
2023-01-17T12:50:51.710Z,4.95
2023-01-17T12:53:58.149Z,6.93
2023-01-17T12:56:27.381Z,6.95
2023-01-17T12:59:45.539Z,5.85
2023-01-17T13:02:15.112Z,6.90
2023-01-17T13:05:04.803Z,7.13
2023-01-17T13:07:49.768Z,5.47
2023-01-17T13:10:47.916Z,4.85
2023-01-17T13:13:21.704Z,6.63
2023-01-17T13:15:51.723Z,8.10
2023-01-17T13:18:22.470Z,7.95
2023-01-17T13:21:05.346Z,4.85
2023-01-17T13:23:49.110Z,11.32
2023-01-17T13:26:40.794Z,8.68
2023-01-17T13:29:28.619Z,6.43
2023-01-17T13:32:13.176Z,5.60
2023-01-17T13:34:58.769Z,7.55
2023-01-17T13:37:44.486Z,4.72
2023-01-17T13:40:39.735Z,9.98
2023-01-17T13:43:13.605Z,12.10
2023-01-17T13:45:39.685Z,13.00
2023-01-17T13:48:11.572Z,9.30
2023-01-17T13:50:40.211Z,8.85
2023-01-17T13:53:28.036Z,11.18
2023-01-17T13:56:08.846Z,7.15
2023-01-17T13:58:51.006Z,10.45
2023-01-17T14:01:22.853Z,7.85
2023-01-17T14:04:02.766Z,8.95
2023-01-17T14:06:37.828Z,13.75
2023-01-17T14:09:12.629Z,7.97
2023-01-17T14:11:52.601Z,5.85
2023-01-17T14:14:39.847Z,6.25
2023-01-17T14:17:27.409Z,9.77
2023-01-17T14:20:05.439Z,7.25
2023-01-17T14:22:35.806Z,8.10
2023-01-17T14:25:18.927Z,6.30
2023-01-17T14:27:54.105Z,5.20
2023-01-17T14:30:25.103Z,7.80
2023-01-17T14:33:07.965Z,10.85
2023-01-17T14:35:37.051Z,8.30
2023-01-17T14:38:14.457Z,11.13
2023-01-17T14:40:49.104Z,9.43
2023-01-17T14:43:19.984Z,8.80
2023-01-17T14:45:46.579Z,6.95
2023-01-17T14:48:18.139Z,6.65
2023-01-17T14:50:45.552Z,6.32
2023-01-17T14:53:11.871Z,8.57
2023-01-17T14:55:46.528Z,10.63
2023-01-17T14:58:19.761Z,9.70
2023-01-17T15:00:49.038Z,8.05
2023-01-17T15:03:15.735Z,9.93
2023-01-17T15:05:45.175Z,9.63
2023-01-17T15:08:13.649Z,14.07
2023-01-17T15:10:57.887Z,10.93
2023-01-17T15:13:44.411Z,15.00
2023-01-17T15:16:19.696Z,8.65
2023-01-17T15:18:45.664Z,10.82
2023-01-17T15:21:16.465Z,9.30
2023-01-17T15:23:55.637Z,8.75
2023-01-17T15:26:28.265Z,12.70
2023-01-17T15:29:02.246Z,13.07
2023-01-17T15:31:48.848Z,7.43
2023-01-17T15:34:35.199Z,10.57
2023-01-17T15:37:04.040Z,11.00
2023-01-17T15:39:33.306Z,14.15
2023-01-17T15:42:03.570Z,15.20
2023-01-17T15:44:49.484Z,16.45
2023-01-17T15:49:57.276Z,14.70
2023-01-17T15:52:23.298Z,13.45
2023-01-17T15:54:58.195Z,13.02
2023-01-17T15:57:31.731Z,18.75
2023-01-17T16:00:08.071Z,14.02
2023-01-17T16:02:42.506Z,11.75
2023-01-17T16:05:24.262Z,12.32
2023-01-17T16:07:54.536Z,16.38
2023-01-17T16:10:30.900Z,14.05
2023-01-17T16:12:58.436Z,9.35
2023-01-17T16:15:28.307Z,11.93
2023-01-17T16:18:00.420Z,13.90
2023-01-17T16:20:43.592Z,12.00
2023-01-17T16:23:10.005Z,12.25
2023-01-17T16:25:36.053Z,17.13
2023-01-17T16:28:02.905Z,12.45
2023-01-17T16:30:29.176Z,9.18
2023-01-17T16:32:56.214Z,11.07
2023-01-17T16:35:24.492Z,14.80
2023-01-17T16:37:52.524Z,10.05
2023-01-17T16:40:20.873Z,10.48
2023-01-17T16:42:47.055Z,10.52
2023-01-17T16:45:14.189Z,7.88
2023-01-17T16:47:41.273Z,12.27
2023-01-17T16:50:09.936Z,9.82
2023-01-17T16:52:36.030Z,16.63
2023-01-17T16:55:03.644Z,9.32
2023-01-17T16:57:29.510Z,13.60
2023-01-17T16:59:55.385Z,11.85
2023-01-17T17:02:22.343Z,9.73
2023-01-17T17:04:48.276Z,12.45
2023-01-17T17:07:14.699Z,11.15
2023-01-17T17:09:40.649Z,11.93
2023-01-17T17:12:06.752Z,13.38
2023-01-17T17:14:32.789Z,13.75
2023-01-17T17:17:01.490Z,14.25
2023-01-17T17:19:30.241Z,14.20
2023-01-17T17:21:59.932Z,10.90
2023-01-17T17:24:25.899Z,11.20
2023-01-17T17:26:51.789Z,15.02
2023-01-17T17:29:18.031Z,11.60
2023-01-17T17:31:44.089Z,9.80
2023-01-17T17:34:12.431Z,8.38
2023-01-17T17:36:38.532Z,10.60
2023-01-17T17:39:08.440Z,9.38
2023-01-17T17:41:38.582Z,11.23
2023-01-17T17:44:05.223Z,9.00
2023-01-17T17:46:33.135Z,8.20
2023-01-17T17:49:00.601Z,15.07
2023-01-17T17:51:29.933Z,9.75
2023-01-17T17:54:00.152Z,9.65
2023-01-17T17:56:27.798Z,11.43
2023-01-17T17:58:53.948Z,14.38
2023-01-17T18:01:23.480Z,8.73
2023-01-17T18:03:54.528Z,8.13
2023-01-17T18:06:20.920Z,12.90
2023-01-17T18:08:47.230Z,12.60
2023-01-17T18:11:17.763Z,9.23
2023-01-17T18:13:51.775Z,8.65
2023-01-17T18:16:34.822Z,9.10
2023-01-17T18:19:05.043Z,16.15
2023-01-17T18:21:33.496Z,8.05
2023-01-17T18:24:02.940Z,13.02
2023-01-17T18:26:35.242Z,14.68
2023-01-17T18:29:02.442Z,15.45
2023-01-17T18:31:29.579Z,16.60
2023-01-17T18:33:57.756Z,15.07
2023-01-17T18:36:25.175Z,18.02
2023-01-17T18:38:51.659Z,14.23
2023-01-17T18:41:20.639Z,15.15
2023-01-17T18:43:47.349Z,15.10
2023-01-17T18:46:15.019Z,13.10
2023-01-17T18:48:41.364Z,11.25
2023-01-17T18:51:12.624Z,12.82
2023-01-17T18:53:39.597Z,12.95
2023-01-17T18:56:12.283Z,17.98
2023-01-17T18:58:41.403Z,13.65
2023-01-17T19:01:19.388Z,11.93
2023-01-17T19:03:46.937Z,12.50
2023-01-17T19:06:16.845Z,13.45
2023-01-17T19:08:43.266Z,7.22
2023-01-17T19:11:09.589Z,9.70
2023-01-17T19:13:37.450Z,12.50
2023-01-17T19:16:06.925Z,9.75
2023-01-17T19:18:34.001Z,13.77
2023-01-17T19:21:11.476Z,10.32
2023-01-17T19:23:38.300Z,18.00
2023-01-17T19:26:07.617Z,16.23
2023-01-17T19:28:36.596Z,16.00
2023-01-17T19:31:12.187Z,15.00
2023-01-17T19:36:08.429Z,24.25
2023-01-17T19:38:36.068Z,20.85
2023-01-17T19:41:16.143Z,13.98
2023-01-17T19:43:42.264Z,8.77
2023-01-17T19:46:09.515Z,10.45
2023-01-17T19:48:36.981Z,8.15
2023-01-17T19:51:09.008Z,11.63
2023-01-17T19:53:36.713Z,10.73
2023-01-17T19:56:13.973Z,9.00
2023-01-17T19:58:40.321Z,12.95
2023-01-17T20:01:18.316Z,10.43
2023-01-17T20:03:45.496Z,11.35
2023-01-17T20:06:14.118Z,10.70
2023-01-17T20:08:42.787Z,9.52
2023-01-17T20:11:20.895Z,11.13
2023-01-17T20:13:48.361Z,9.90
2023-01-17T20:16:16.302Z,8.05
2023-01-17T20:18:42.875Z,9.88
2023-01-17T20:21:16.632Z,9.23
2023-01-17T20:23:46.271Z,10.05
2023-01-17T20:26:14.838Z,9.68
2023-01-17T20:28:43.119Z,9.07
2023-01-17T20:31:12.134Z,10.15
2023-01-17T20:33:43.221Z,11.50
2023-01-17T20:36:11.683Z,11.73
2023-01-17T20:38:44.703Z,9.43
2023-01-17T20:41:14.588Z,9.63
2023-01-17T20:43:42.279Z,10.50
2023-01-17T20:46:09.241Z,9.38
2023-01-17T20:48:35.624Z,13.18
2023-01-17T20:51:06.831Z,11.80
2023-01-17T20:53:34.293Z,12.85
2023-01-17T20:56:00.240Z,7.53
2023-01-17T20:58:26.111Z,9.00
2023-01-17T21:00:54.599Z,8.20
2023-01-17T21:03:20.820Z,8.35
2023-01-17T21:05:46.767Z,12.43
2023-01-17T21:08:14.522Z,8.18
2023-01-17T21:10:49.711Z,7.55
2023-01-17T21:13:15.613Z,8.20
2023-01-17T21:15:42.979Z,5.03
2023-01-17T21:18:09.314Z,5.00
2023-01-17T21:20:35.915Z,10.05
2023-01-17T21:23:01.789Z,7.47
2023-01-17T21:25:27.707Z,5.60
2023-01-17T21:27:53.673Z,8.35
2023-01-17T21:30:19.655Z,9.73
2023-01-17T21:32:45.484Z,7.43
2023-01-17T21:35:11.428Z,10.70
2023-01-17T21:37:37.617Z,9.20
2023-01-17T21:40:05.341Z,10.90
2023-01-17T21:42:31.396Z,9.48
2023-01-17T21:44:57.546Z,10.50
2023-01-17T21:47:23.513Z,9.07
2023-01-17T21:49:49.520Z,11.40
2023-01-17T21:52:17.977Z,6.82
2023-01-17T21:55:02.803Z,6.80
2023-01-17T21:57:47.213Z,6.03
2023-01-17T22:00:13.864Z,9.27
2023-01-17T22:02:40.349Z,13.77
2023-01-17T22:05:07.564Z,13.00
2023-01-17T22:07:33.680Z,14.95
2023-01-17T22:10:00.060Z,12.43
2023-01-17T22:12:26.110Z,8.90
2023-01-17T22:14:52.828Z,12.90
2023-01-17T22:17:20.302Z,13.45
2023-01-17T22:19:46.332Z,13.18
2023-01-17T22:22:12.728Z,11.70
2023-01-17T22:24:39.829Z,11.52
2023-01-17T22:27:09.173Z,12.23
2023-01-17T22:29:38.728Z,10.05
2023-01-17T22:32:04.666Z,7.85
2023-01-17T22:34:30.611Z,10.27
2023-01-17T22:36:56.429Z,12.70
2023-01-17T22:39:22.301Z,10.77
2023-01-17T22:41:48.309Z,8.68
2023-01-17T22:44:14.226Z,10.02
2023-01-17T22:46:40.815Z,9.88
2023-01-17T22:49:07.725Z,7.80
2023-01-17T22:51:34.375Z,7.05
2023-01-17T22:54:00.719Z,5.55
2023-01-17T22:56:32.107Z,7.57
2023-01-17T22:58:59.972Z,7.95
2023-01-17T23:01:28.927Z,7.95
2023-01-17T23:03:59.749Z,10.18
2023-01-17T23:06:29.566Z,11.32
2023-01-17T23:08:57.503Z,6.57
2023-01-17T23:11:45.435Z,7.32
2023-01-17T23:14:20.454Z,8.20
2023-01-17T23:17:16.387Z,9.52
2023-01-17T23:19:43.376Z,7.18
2023-01-17T23:22:15.509Z,12.73
2023-01-17T23:24:58.953Z,12.00
2023-01-17T23:27:51.118Z,12.23
2023-01-17T23:30:25.368Z,9.60
2023-01-17T23:32:53.363Z,9.38
2023-01-17T23:35:22.076Z,9.95
2023-01-17T23:38:06.975Z,10.52
2023-01-17T23:40:34.502Z,13.50
2023-01-17T23:43:19.189Z,10.07
2023-01-17T23:45:45.661Z,8.38
2023-01-17T23:48:11.932Z,19.73
2023-01-17T23:50:40.430Z,11.07
2023-01-17T23:53:06.956Z,9.50
2023-01-17T23:55:40.119Z,9.52
2023-01-17T23:58:07.872Z,10.85
